createdAt,value
2022-08-05T00:01:56.725Z,100247.56
2022-08-05T00:06:03.301Z,100247.31
2022-08-05T00:08:34.879Z,100247.88
2022-08-05T00:11:48.251Z,100241.03
2022-08-05T00:14:51.985Z,100242.59
2022-08-05T00:17:54.503Z,100246.22
2022-08-05T00:20:57.299Z,100242.88
2022-08-05T00:24:10.691Z,100251.22
2022-08-05T00:27:16.503Z,100248.44
2022-08-05T00:30:19.388Z,100249.19
2022-08-05T00:34:56.203Z,100247.69
2022-08-05T00:37:12.653Z,100243.78
2022-08-05T00:40:27.484Z,100244.16
2022-08-05T00:43:41.642Z,100237.69
2022-08-05T00:46:53.958Z,100241.19
2022-08-05T00:50:04.274Z,100232.78
2022-08-05T00:53:09.899Z,100240.34
2022-08-05T00:56:30.395Z,100241.06
2022-08-05T00:59:34.580Z,100232.41
2022-08-05T01:02:47.203Z,100237.28
2022-08-05T01:05:54.549Z,100230.16
2022-08-05T01:08:57.412Z,100228.62
2022-08-05T01:12:09.463Z,100221.56
2022-08-05T01:15:36.241Z,100222.28
2022-08-05T01:18:48.153Z,100227.50
2022-08-05T01:22:24.229Z,100230.34
2022-08-05T01:25:57.238Z,100233.19
2022-08-05T01:29:08.728Z,100219.78
2022-08-05T01:32:18.577Z,100228.81
2022-08-05T01:35:50.607Z,100228.88
2022-08-05T01:38:50.877Z,100235.91
2022-08-05T01:41:55.300Z,100230.09
2022-08-05T01:45:03.149Z,100233.13
2022-08-05T01:48:10.431Z,100237.53
2022-08-05T01:51:14.827Z,100235.22
2022-08-05T01:54:23.602Z,100232.47
2022-08-05T01:58:29.946Z,100235.59
2022-08-05T02:01:04.317Z,100226.09
2022-08-05T02:04:09.025Z,100232.81
2022-08-05T02:07:12.852Z,100244.34
2022-08-05T02:10:28.852Z,100236.38
2022-08-05T02:13:53.225Z,100233.37
2022-08-05T02:17:08.271Z,100230.06
2022-08-05T02:20:23.399Z,100238.56
2022-08-05T02:23:33.791Z,100237.72
2022-08-05T02:26:53.891Z,100232.06
2022-08-05T02:30:00.983Z,100230.75
2022-08-05T02:33:04.874Z,100231.31
2022-08-05T02:36:13.380Z,100233.13
2022-08-05T02:39:18.457Z,100226.34
2022-08-05T02:42:25.830Z,100225.19
2022-08-05T02:45:51.631Z,100221.84
2022-08-05T02:48:53.851Z,100218.69
2022-08-05T02:52:04.031Z,100222.72
2022-08-05T02:55:08.680Z,100221.53
2022-08-05T02:58:15.954Z,100223.19
2022-08-05T03:01:23.396Z,100217.03
2022-08-05T03:04:28.644Z,100218.41
2022-08-05T03:08:00.175Z,100213.56
2022-08-05T03:11:53.469Z,100210.25
2022-08-05T03:14:16.877Z,100206.87
2022-08-05T03:17:20.174Z,100212.06
2022-08-05T03:20:24.807Z,100211.38
2022-08-05T03:23:27.671Z,100209.06
2022-08-05T03:26:32.705Z,100206.72
2022-08-05T03:29:45.357Z,100200.38
2022-08-05T03:32:58.634Z,100194.56
2022-08-05T03:36:01.511Z,100193.37
2022-08-05T03:39:19.909Z,100202.03
2022-08-05T03:42:32.138Z,100196.69
2022-08-05T03:45:58.137Z,100206.37
2022-08-05T03:48:58.526Z,100199.69
2022-08-05T03:52:36.872Z,100197.75
2022-08-05T03:56:10.874Z,100201.72
2022-08-05T03:59:02.758Z,100214.72
2022-08-05T04:02:06.430Z,100214.91
2022-08-05T04:05:10.502Z,100211.22
2022-08-05T04:08:29.674Z,100210.88
2022-08-05T04:11:47.547Z,100212.50
2022-08-05T04:14:54.362Z,100210.97
2022-08-05T04:18:09.376Z,100211.13
2022-08-05T04:21:12.736Z,100207.31
2022-08-05T04:24:35.144Z,100217.22
2022-08-05T04:27:43.467Z,100208.50
2022-08-05T04:30:48.102Z,100208.44
2022-08-05T04:34:18.609Z,100216.59
2022-08-05T04:37:12.879Z,100213.81
2022-08-05T04:40:15.050Z,100210.78
2022-08-05T04:43:22.247Z,100215.91
2022-08-05T04:46:28.226Z,100214.69
2022-08-05T04:49:39.196Z,100217.22
2022-08-05T04:52:53.228Z,100228.16
2022-08-05T04:56:15.367Z,100223.37
2022-08-05T04:59:24.131Z,100227.81
2022-08-05T05:02:41.734Z,100234.59
2022-08-05T05:06:39.233Z,100225.38
2022-08-05T05:09:07.894Z,100229.53
2022-08-05T05:12:10.221Z,100230.63
2022-08-05T05:15:17.471Z,100228.66
2022-08-05T05:18:36.588Z,100230.13
2022-08-05T05:21:39.030Z,100234.41
2022-08-05T05:24:58.937Z,100232.91
2022-08-05T05:28:02.544Z,100228.03
2022-08-05T05:31:05.789Z,100233.87
2022-08-05T05:34:11.378Z,100230.78
2022-08-05T05:37:15.070Z,100231.66
2022-08-05T05:40:20.159Z,100227.56
2022-08-05T05:43:54.613Z,100227.06
2022-08-05T05:46:45.478Z,100235.00
2022-08-05T05:49:56.956Z,100225.97
2022-08-05T05:53:20.775Z,100221.09
2022-08-05T05:56:25.936Z,100220.28
2022-08-05T05:59:40.346Z,100219.47
2022-08-05T06:02:43.809Z,100217.06
2022-08-05T06:05:54.004Z,100218.97
2022-08-05T06:08:56.250Z,100221.78
2022-08-05T06:12:01.675Z,100226.78
2022-08-05T06:15:08.043Z,100229.84
2022-08-05T06:18:10.647Z,100221.25
2022-08-05T06:21:18.640Z,100227.06
2022-08-05T06:24:27.193Z,100231.66
2022-08-05T06:28:11.890Z,100227.94
2022-08-05T06:30:52.151Z,100228.56
2022-08-05T06:34:07.530Z,100228.78
2022-08-05T06:37:11.634Z,100226.06
2022-08-05T06:40:18.427Z,100221.28
2022-08-05T06:43:58.328Z,100221.62
2022-08-05T06:46:46.105Z,100230.75
2022-08-05T06:50:01.744Z,100230.78
2022-08-05T06:53:11.509Z,100234.38
2022-08-05T06:56:26.551Z,100223.63
2022-08-05T06:59:29.153Z,100227.84
2022-08-05T07:02:45.124Z,100229.38
2022-08-05T07:05:47.319Z,100227.22
2022-08-05T07:08:54.970Z,100231.59
2022-08-05T07:12:00.471Z,100227.34
2022-08-05T07:15:34.784Z,100227.28
2022-08-05T07:18:47.842Z,100225.09
2022-08-05T07:22:00.323Z,100229.59
2022-08-05T07:25:22.695Z,100226.66
2022-08-05T07:28:27.121Z,100226.25
2022-08-05T07:31:53.943Z,100216.00
2022-08-05T07:34:57.721Z,100223.87
2022-08-05T07:38:00.203Z,100223.09
2022-08-05T07:42:08.968Z,100211.22
2022-08-05T07:44:27.258Z,100207.97
2022-08-05T07:47:39.634Z,100213.41
2022-08-05T07:50:44.808Z,100212.91
2022-08-05T07:53:50.586Z,100210.44
2022-08-05T07:57:01.732Z,100209.50
2022-08-05T08:00:17.385Z,100207.00
2022-08-05T08:03:21.623Z,100207.88
2022-08-05T08:06:23.812Z,100200.78
2022-08-05T08:09:30.843Z,100207.22
2022-08-05T08:12:48.926Z,100204.53
2022-08-05T08:16:35.143Z,100194.13
2022-08-05T08:20:20.925Z,100190.56
2022-08-05T08:22:36.947Z,100192.53
2022-08-05T08:26:00.611Z,100183.75
2022-08-05T08:29:21.870Z,100192.53
2022-08-05T08:32:27.935Z,100183.09
2022-08-05T08:35:34.717Z,100182.41
2022-08-05T08:38:42.853Z,100175.72
2022-08-05T08:41:59.425Z,100184.47
2022-08-05T08:45:20.552Z,100178.12
2022-08-05T08:49:02.455Z,100172.59
2022-08-05T08:52:03.596Z,100177.09
2022-08-05T08:55:13.206Z,100170.06
2022-08-05T08:58:17.106Z,100175.75
2022-08-05T09:01:20.328Z,100167.13
2022-08-05T09:04:22.826Z,100172.78
2022-08-05T09:07:39.359Z,100175.91
2022-08-05T09:10:46.922Z,100168.22
2022-08-05T09:14:09.460Z,100165.69
2022-08-05T09:17:40.776Z,100162.50
2022-08-05T09:20:37.520Z,100154.16
2022-08-05T09:23:43.647Z,100157.88
2022-08-05T09:26:48.601Z,100148.13
2022-08-05T09:29:54.620Z,100148.94
2022-08-05T09:33:02.315Z,100142.78
2022-08-05T09:36:11.723Z,100144.50
2022-08-05T09:39:22.359Z,100143.97
2022-08-05T09:42:28.144Z,100142.75
2022-08-05T09:46:06.756Z,100132.31
2022-08-05T09:49:19.032Z,100137.66
2022-08-05T09:52:34.280Z,100129.56
2022-08-05T09:55:57.261Z,100134.28
2022-08-05T09:59:04.358Z,100131.63
2022-08-05T10:02:06.669Z,100116.56
2022-08-05T10:05:14.921Z,100119.28
2022-08-05T10:08:36.199Z,100116.59
2022-08-05T10:11:41.542Z,100122.19
2022-08-05T10:14:44.013Z,100111.03
2022-08-05T10:18:10.337Z,100109.22
2022-08-05T10:21:16.297Z,100102.13
2022-08-05T10:24:20.896Z,100096.59
2022-08-05T10:28:09.239Z,100098.28
2022-08-05T10:32:49.686Z,100089.28
2022-08-05T10:34:16.923Z,100096.97
2022-08-05T10:37:21.049Z,100078.41
2022-08-05T10:40:43.502Z,100074.87
2022-08-05T10:43:59.571Z,100074.00
2022-08-05T10:47:26.844Z,100084.97
2022-08-05T10:50:45.449Z,100074.00
2022-08-05T10:53:51.681Z,100078.69
2022-08-05T10:56:57.218Z,100074.56
2022-08-05T11:00:19.260Z,100072.97
2022-08-05T11:03:26.640Z,100068.81
2022-08-05T11:06:30.732Z,100068.88
2022-08-05T11:09:46.534Z,100063.63
2022-08-05T11:12:54.279Z,100057.37
2022-08-05T11:16:33.700Z,100050.28
2022-08-05T11:20:10.721Z,100046.97
2022-08-05T11:24:05.092Z,100051.88
2022-08-05T11:27:37.021Z,100058.41
2022-08-05T11:30:58.493Z,100048.88
2022-08-05T11:34:05.806Z,100045.06
2022-08-05T11:38:28.579Z,100040.19
2022-08-05T11:41:13.986Z,100040.69
2022-08-05T11:44:53.114Z,100042.38
2022-08-05T11:47:54.784Z,100034.94
2022-08-05T11:50:58.108Z,100041.31
2022-08-05T11:54:01.813Z,100043.19
2022-08-05T11:57:08.723Z,100048.94
2022-08-05T12:00:31.140Z,100044.84
2022-08-05T12:03:55.608Z,100046.75
2022-08-05T12:07:00.578Z,100044.00
2022-08-05T12:10:09.657Z,100038.56
2022-08-05T12:13:18.891Z,100046.22
2022-08-05T12:16:39.159Z,100036.94
2022-08-05T12:20:25.960Z,100032.25
2022-08-05T12:23:22.138Z,100028.44
2022-08-05T12:26:24.485Z,100029.56
2022-08-05T12:29:29.174Z,100021.28
2022-08-05T12:32:50.364Z,100022.66
2022-08-05T12:35:53.850Z,100009.87
2022-08-05T12:38:58.955Z,100014.50
2022-08-05T12:42:02.467Z,100018.31
2022-08-05T12:45:10.131Z,100022.19
2022-08-05T12:48:26.777Z,100018.34
2022-08-05T12:52:12.832Z,100016.16
2022-08-05T12:55:26.134Z,100004.69
2022-08-05T12:58:48.828Z,100004.13
2022-08-05T13:02:04.443Z,100006.28
2022-08-05T13:05:08.422Z,99993.19
2022-08-05T13:08:18.650Z,99996.47
2022-08-05T13:11:25.352Z,99990.44
2022-08-05T13:15:05.674Z,99979.53
2022-08-05T13:18:09.183Z,99991.28
2022-08-05T13:21:12.625Z,99973.56
2022-08-05T13:24:27.645Z,99978.50
2022-08-05T13:27:42.035Z,99970.59
2022-08-05T13:30:44.531Z,99968.66
2022-08-05T13:34:25.161Z,99962.37
2022-08-05T13:37:13.415Z,99960.50
2022-08-05T13:40:36.693Z,99947.97
2022-08-05T13:43:45.550Z,99953.13
2022-08-05T13:47:02.049Z,99949.28
2022-08-05T13:50:10.349Z,99948.25
2022-08-05T13:53:15.971Z,99940.59
2022-08-05T13:56:19.355Z,99935.94
2022-08-05T13:59:24.217Z,99922.06
2022-08-05T14:02:29.773Z,99931.03
2022-08-05T14:06:04.736Z,99932.13
2022-08-05T14:08:56.043Z,99923.41
2022-08-05T14:12:17.271Z,99919.84
2022-08-05T14:16:04.342Z,99923.09
2022-08-05T14:18:43.342Z,99925.31
2022-08-05T14:22:09.531Z,99917.97
2022-08-05T14:25:21.531Z,99920.97
2022-08-05T14:28:27.547Z,99917.16
2022-08-05T14:32:03.520Z,99905.44
2022-08-05T14:34:54.129Z,99897.28
2022-08-05T14:37:59.348Z,99899.16
2022-08-05T14:41:06.693Z,99901.06
2022-08-05T14:44:20.489Z,99901.06
2022-08-05T14:48:04.205Z,99899.44
2022-08-05T14:50:46.131Z,99900.00
2022-08-05T14:54:26.045Z,99896.69
2022-08-05T14:57:13.543Z,99886.06
2022-08-05T15:00:16.095Z,99888.53
2022-08-05T15:03:22.901Z,99887.44
2022-08-05T15:06:28.071Z,99880.63
2022-08-05T15:09:54.088Z,99879.25
2022-08-05T15:13:01.183Z,99882.75
2022-08-05T15:16:07.227Z,99880.56
2022-08-05T15:19:14.411Z,99879.75
2022-08-05T15:22:26.942Z,99888.47
2022-08-05T15:25:50.955Z,99878.66
2022-08-05T15:28:52.567Z,99876.22
2022-08-05T15:31:54.734Z,99869.06
2022-08-05T15:34:58.298Z,99872.34
2022-08-05T15:38:09.276Z,99864.22
2022-08-05T15:41:24.730Z,99864.72
2022-08-05T15:44:46.497Z,99866.31
2022-08-05T15:47:49.490Z,99852.97
2022-08-05T15:50:57.478Z,99857.91
2022-08-05T15:54:00.053Z,99853.84
2022-08-05T15:57:03.275Z,99856.22
2022-08-05T16:00:11.404Z,99856.97
2022-08-05T16:03:14.331Z,99852.84
2022-08-05T16:06:20.291Z,99859.09
2022-08-05T16:09:24.898Z,99852.28
2022-08-05T16:12:27.252Z,99852.84
2022-08-05T16:15:32.433Z,99854.44
2022-08-05T16:18:51.821Z,99857.63
2022-08-05T16:22:00.241Z,99850.50
2022-08-05T16:25:09.559Z,99853.94
2022-08-05T16:28:13.600Z,99859.91
2022-08-05T16:31:17.935Z,99860.66
2022-08-05T16:34:22.610Z,99858.38
2022-08-05T16:38:03.707Z,99859.66
2022-08-05T16:40:55.198Z,99859.62
2022-08-05T16:43:58.255Z,99846.53
2022-08-05T16:47:00.940Z,99844.53
2022-08-05T16:50:04.957Z,99838.44
2022-08-05T16:53:12.241Z,99843.72
2022-08-05T16:56:25.727Z,99841.13
2022-08-05T16:59:30.764Z,99830.34
2022-08-05T17:02:33.384Z,99837.00
2022-08-05T17:05:37.022Z,99835.53
2022-08-05T17:08:53.304Z,99845.62
2022-08-05T17:12:00.052Z,99847.66
2022-08-05T17:15:02.775Z,99842.25
2022-08-05T17:18:05.559Z,99843.31
2022-08-05T17:21:16.462Z,99846.41
2022-08-05T17:24:35.172Z,99848.66
2022-08-05T17:27:41.437Z,99847.56
2022-08-05T17:30:51.965Z,99846.78
2022-08-05T17:33:55.943Z,99856.63
2022-08-05T17:37:00.432Z,99853.41
2022-08-05T17:40:04.748Z,99854.53
2022-08-05T17:43:13.102Z,99858.34
2022-08-05T17:46:18.391Z,99855.34
2022-08-05T17:49:21.131Z,99855.03
2022-08-05T17:52:26.356Z,99856.13
2022-08-05T17:55:38.468Z,99858.22
2022-08-05T17:58:42.227Z,99860.12
2022-08-05T18:01:49.627Z,99856.87
2022-08-05T18:04:53.603Z,99857.69
2022-08-05T18:07:57.394Z,99856.66
2022-08-05T18:11:00.154Z,99855.78
2022-08-05T18:14:06.663Z,99861.78
2022-08-05T18:18:00.353Z,99856.91
2022-08-05T18:20:32.551Z,99853.72
2022-08-05T18:23:45.805Z,99854.31
2022-08-05T18:26:49.475Z,99858.16
2022-08-05T18:29:54.564Z,99852.88
2022-08-05T18:33:00.285Z,99858.28
2022-08-05T18:36:11.938Z,99853.12
2022-08-05T18:39:42.517Z,99858.47
2022-08-05T18:42:40.807Z,99868.16
2022-08-05T18:45:43.932Z,99872.69
2022-08-05T18:48:52.125Z,99875.31
2022-08-05T18:52:13.474Z,99878.25
2022-08-05T18:55:17.279Z,99875.47
2022-08-05T18:58:19.456Z,99874.53
2022-08-05T19:01:33.239Z,99881.84
2022-08-05T19:05:02.656Z,99878.16
2022-08-05T19:08:13.733Z,99885.50
2022-08-05T19:11:27.858Z,99871.72
2022-08-05T19:14:52.292Z,99877.78
2022-08-05T19:18:08.067Z,99880.56
2022-08-05T19:21:12.394Z,99880.66
2022-08-05T19:24:14.571Z,99885.44
2022-08-05T19:27:17.045Z,99878.44
2022-08-05T19:30:21.851Z,99887.41
2022-08-05T19:33:35.375Z,99886.87
2022-08-05T19:36:38.736Z,99884.63
2022-08-05T19:39:50.967Z,99887.59
2022-08-05T19:43:04.553Z,99899.00
2022-08-05T19:46:16.959Z,99896.97
2022-08-05T19:49:30.843Z,99885.44
2022-08-05T19:52:33.432Z,99884.44
2022-08-05T19:56:14.416Z,99884.06
2022-08-05T19:58:58.011Z,99882.03
2022-08-05T20:02:20.121Z,99880.84
2022-08-05T20:05:24.614Z,99880.00
2022-08-05T20:08:27.056Z,99887.91
2022-08-05T20:11:30.702Z,99888.91
2022-08-05T20:14:39.930Z,99895.31
2022-08-05T20:17:42.399Z,99893.44
2022-08-05T20:20:46.081Z,99911.00
2022-08-05T20:23:51.560Z,99898.84
2022-08-05T20:26:55.490Z,99911.06
2022-08-05T20:29:59.608Z,99919.72
2022-08-05T20:33:02.304Z,99926.13
2022-08-05T20:36:04.859Z,99932.16
2022-08-05T20:39:07.116Z,99937.94
2022-08-05T20:42:15.418Z,99927.19
2022-08-05T20:45:23.951Z,99928.88
2022-08-05T20:48:50.993Z,99934.25
2022-08-05T20:51:54.978Z,99929.06
2022-08-05T20:55:15.966Z,99925.16
2022-08-05T20:58:19.801Z,99927.44
2022-08-05T21:01:26.146Z,99941.28
2022-08-05T21:04:40.695Z,99939.44
2022-08-05T21:07:50.470Z,99932.81
2022-08-05T21:10:53.931Z,99936.31
2022-08-05T21:13:56.987Z,99937.50
2022-08-05T21:16:59.265Z,99938.34
2022-08-05T21:20:09.792Z,99939.37
2022-08-05T21:23:12.892Z,99933.97
2022-08-05T21:26:16.665Z,99941.78
2022-08-05T21:29:19.899Z,99937.22
2022-08-05T21:32:27.712Z,99935.56
2022-08-05T21:35:55.771Z,99938.66
2022-08-05T21:38:52.649Z,99941.53
2022-08-05T21:42:01.476Z,99936.59
2022-08-05T21:45:05.235Z,99937.41
2022-08-05T21:48:13.528Z,99944.12
2022-08-05T21:51:25.309Z,99939.97
2022-08-05T21:54:40.294Z,99941.84
2022-08-05T21:57:44.145Z,99948.66
2022-08-05T22:00:51.436Z,99950.91
2022-08-05T22:03:54.467Z,99957.00
2022-08-05T22:06:57.097Z,99952.94
2022-08-05T22:09:59.820Z,99955.41
2022-08-05T22:14:05.078Z,99952.91
2022-08-05T22:16:41.290Z,99955.59
2022-08-05T22:20:00.332Z,99950.41
2022-08-05T22:23:25.385Z,99949.94
2022-08-05T22:27:06.926Z,99947.28
2022-08-05T22:30:15.200Z,99954.63
2022-08-05T22:33:19.445Z,99959.16
2022-08-05T22:36:41.910Z,99952.66
2022-08-05T22:39:45.254Z,99952.06
2022-08-05T22:42:58.168Z,99948.72
2022-08-05T22:46:02.514Z,99941.41
2022-08-05T22:49:23.294Z,99941.72
2022-08-05T22:52:34.551Z,99947.22
2022-08-05T22:55:57.280Z,99945.72
2022-08-05T22:59:02.778Z,99942.56
2022-08-05T23:02:07.715Z,99947.16
2022-08-05T23:05:10.181Z,99938.75
2022-08-05T23:08:12.722Z,99949.03
2022-08-05T23:11:16.422Z,99946.44
2022-08-05T23:14:22.668Z,99944.78
2022-08-05T23:17:37.926Z,99946.06
2022-08-05T23:20:56.588Z,99951.16
2022-08-05T23:24:00.559Z,99946.56
2022-08-05T23:27:06.288Z,99951.25
2022-08-05T23:30:10.769Z,99943.34
2022-08-05T23:33:22.292Z,99939.81
2022-08-05T23:36:38.663Z,99930.88
2022-08-05T23:39:53.286Z,99933.94
2022-08-05T23:42:56.700Z,99935.47
2022-08-05T23:45:59.299Z,99928.69
2022-08-05T23:49:15.653Z,99931.75
2022-08-05T23:52:35.734Z,99940.97
2022-08-05T23:55:38.533Z,99932.50
2022-08-05T23:58:44.144Z,99926.50
